Terminal Aerodrome Forecast
Issued by NWS Wilmington, NC

Home | Current Version | Previous Version | Text Only | Print | Product List | Glossary On
Versions: 1 2 3 4 5 6 7 8 9 10 11 12 13
000
FTUS42 KILM 171720
TAFILM
TAF
KILM 171720Z 1718/1818 VRB03KT P6SM FEW200
     FM172100 VRB03KT P6SM BKN080
     FM180400 VRB02KT P6SM BKN040
      TEMPO 1809/1812 4SM BR BKN025=

USA.gov is the U.S. government's official web portal to all federal, state and local government web resources and services.